createdAt,value
2022-10-25T00:00:29.592Z,12.39
2022-10-25T00:02:57.818Z,12.37
2022-10-25T00:05:26.227Z,12.36
2022-10-25T00:07:54.524Z,12.30
2022-10-25T00:10:25.562Z,12.21
2022-10-25T00:12:54.530Z,12.17
2022-10-25T00:15:24.236Z,12.20
2022-10-25T00:17:52.525Z,12.23
2022-10-25T00:20:21.104Z,12.20
2022-10-25T00:22:49.540Z,12.23
2022-10-25T00:25:18.464Z,12.23
2022-10-25T00:27:46.752Z,12.18
2022-10-25T00:30:15.101Z,12.14
2022-10-25T00:32:45.069Z,12.12
2022-10-25T00:35:13.540Z,12.07
2022-10-25T00:37:42.000Z,12.04
2022-10-25T00:40:11.571Z,12.04
2022-10-25T00:42:39.829Z,12.07
2022-10-25T00:45:17.536Z,12.13
2022-10-25T00:47:49.118Z,12.17
2022-10-25T00:50:31.451Z,12.25
2022-10-25T00:53:02.592Z,12.25
2022-10-25T00:55:30.876Z,12.25
2022-10-25T00:58:00.900Z,12.25
2022-10-25T01:00:29.202Z,12.23
2022-10-25T01:02:58.861Z,12.21
2022-10-25T01:05:27.476Z,12.15
2022-10-25T01:07:55.751Z,12.13
2022-10-25T01:10:23.985Z,12.08
2022-10-25T01:12:52.471Z,12.01
2022-10-25T01:15:21.518Z,11.93
2022-10-25T01:17:53.420Z,11.79
2022-10-25T01:20:50.781Z,11.73
2022-10-25T01:23:27.230Z,11.70
2022-10-25T01:26:33.509Z,11.64
2022-10-25T01:29:15.732Z,11.57
2022-10-25T01:31:46.039Z,11.46
2022-10-25T01:34:16.918Z,11.34
2022-10-25T01:36:46.944Z,11.33
2022-10-25T01:39:17.049Z,11.37
2022-10-25T01:41:51.123Z,11.38
2022-10-25T01:44:26.813Z,11.40
2022-10-25T01:46:58.989Z,11.35
2022-10-25T01:49:29.731Z,11.43
2022-10-25T01:51:58.112Z,11.38
2022-10-25T01:54:26.735Z,11.39
2022-10-25T01:57:01.815Z,11.38
2022-10-25T01:59:39.422Z,11.38
2022-10-25T02:02:11.796Z,11.37
2022-10-25T02:04:43.831Z,11.35
2022-10-25T02:07:12.953Z,11.35
2022-10-25T02:09:45.032Z,11.31
2022-10-25T02:12:15.774Z,11.26
2022-10-25T02:14:46.549Z,11.19
2022-10-25T02:17:17.854Z,11.18
2022-10-25T02:19:47.894Z,11.15
2022-10-25T02:22:16.186Z,11.14
2022-10-25T02:24:45.767Z,11.18
2022-10-25T02:27:14.097Z,11.24
2022-10-25T02:29:42.675Z,11.23
2022-10-25T02:32:10.992Z,11.22
2022-10-25T02:34:40.703Z,11.25
2022-10-25T02:37:08.968Z,11.31
2022-10-25T02:39:37.287Z,11.38
2022-10-25T02:42:06.179Z,11.40
2022-10-25T02:44:34.596Z,11.44
2022-10-25T02:47:02.903Z,11.50
2022-10-25T02:49:31.218Z,11.57
2022-10-25T02:52:00.878Z,11.61
2022-10-25T02:54:29.443Z,11.62
2022-10-25T02:56:57.769Z,11.68
2022-10-25T02:59:26.234Z,11.68
2022-10-25T03:01:54.552Z,11.74
2022-10-25T03:04:22.996Z,11.76
2022-10-25T03:06:51.256Z,11.80
2022-10-25T03:09:21.405Z,11.81
2022-10-25T03:11:49.677Z,11.81
2022-10-25T03:14:17.932Z,11.82
2022-10-25T03:19:19.440Z,11.85
2022-10-25T03:21:48.075Z,11.87
2022-10-25T03:24:16.592Z,11.88
2022-10-25T03:26:46.238Z,11.88
2022-10-25T03:29:14.493Z,11.86
2022-10-25T03:31:42.781Z,11.85
2022-10-25T03:34:11.066Z,11.87
2022-10-25T03:36:39.776Z,11.87
2022-10-25T03:39:08.038Z,11.89
2022-10-25T03:41:36.336Z,11.89
2022-10-25T03:44:06.535Z,11.86
2022-10-25T03:46:34.814Z,11.83
2022-10-25T03:49:03.080Z,11.84
2022-10-25T03:51:31.624Z,11.83
2022-10-25T03:53:59.873Z,11.83
2022-10-25T03:56:28.180Z,11.83
2022-10-25T03:58:56.515Z,11.85
2022-10-25T04:01:26.372Z,11.85
2022-10-25T04:03:55.002Z,11.86
2022-10-25T04:06:23.229Z,11.87
2022-10-25T04:08:51.528Z,11.88
2022-10-25T04:11:19.807Z,11.89
2022-10-25T04:13:48.103Z,11.91
2022-10-25T04:16:19.065Z,11.89
2022-10-25T04:18:49.268Z,11.90
2022-10-25T04:21:17.551Z,11.90
2022-10-25T04:23:45.828Z,11.90
2022-10-25T04:26:17.413Z,11.89
2022-10-25T04:28:45.719Z,11.88
2022-10-25T04:31:14.316Z,11.88
2022-10-25T04:33:45.205Z,11.86
2022-10-25T04:36:17.774Z,11.86
2022-10-25T04:38:47.639Z,11.83
2022-10-25T04:41:15.984Z,11.79
2022-10-25T04:43:44.257Z,11.72
2022-10-25T04:46:12.831Z,11.68
2022-10-25T04:48:41.156Z,11.65
2022-10-25T04:51:09.477Z,11.65
2022-10-25T04:53:39.281Z,11.65
2022-10-25T04:56:08.565Z,11.70
2022-10-25T04:58:37.222Z,11.71
2022-10-25T05:01:06.528Z,11.70
2022-10-25T05:03:34.827Z,11.69
2022-10-25T05:06:07.918Z,11.70
2022-10-25T05:08:36.177Z,11.69
2022-10-25T05:11:06.404Z,11.68
2022-10-25T05:13:34.933Z,11.69
2022-10-25T05:16:03.175Z,11.69
2022-10-25T05:18:31.812Z,11.67
2022-10-25T05:21:04.195Z,11.63
2022-10-25T05:23:32.999Z,11.55
2022-10-25T05:26:06.870Z,11.47
2022-10-25T05:28:35.165Z,11.39
2022-10-25T05:31:06.882Z,11.36
2022-10-25T05:33:35.210Z,11.25
2022-10-25T05:36:03.755Z,11.23
2022-10-25T05:38:34.351Z,11.21
2022-10-25T05:41:07.346Z,11.21
2022-10-25T05:43:35.693Z,11.21
2022-10-25T05:46:05.361Z,11.23
2022-10-25T05:48:33.987Z,11.25
2022-10-25T05:51:32.495Z,11.29
2022-10-25T05:54:02.698Z,11.32
2022-10-25T05:56:33.167Z,11.34
2022-10-25T05:59:03.627Z,11.37
2022-10-25T06:01:32.036Z,11.39
2022-10-25T06:04:00.393Z,11.40
2022-10-25T06:06:28.710Z,11.42
2022-10-25T06:08:58.008Z,11.43
2022-10-25T06:11:26.363Z,11.47
2022-10-25T06:13:56.011Z,11.51
2022-10-25T06:16:24.493Z,11.54
2022-10-25T06:18:53.884Z,11.58
2022-10-25T06:21:23.046Z,11.61
2022-10-25T06:23:51.295Z,11.63
2022-10-25T06:26:20.577Z,11.66
2022-10-25T06:28:48.872Z,11.65
2022-10-25T06:31:19.171Z,11.66
2022-10-25T06:33:47.775Z,11.68
2022-10-25T06:36:16.995Z,11.68
2022-10-25T06:38:45.342Z,11.68
2022-10-25T06:41:14.775Z,11.70
2022-10-25T06:43:43.053Z,11.73
2022-10-25T06:46:12.723Z,11.78
2022-10-25T06:48:42.706Z,11.78
2022-10-25T06:51:10.995Z,11.80
2022-10-25T06:53:39.303Z,11.83
2022-10-25T06:56:10.625Z,11.85
2022-10-25T06:58:42.397Z,11.86
2022-10-25T07:01:12.620Z,11.89
2022-10-25T07:03:42.367Z,11.93
2022-10-25T07:06:11.774Z,11.96
2022-10-25T07:08:40.533Z,11.99
2022-10-25T07:11:09.068Z,12.01
2022-10-25T07:13:37.349Z,12.02
2022-10-25T07:16:06.280Z,12.04
2022-10-25T07:18:34.894Z,12.09
2022-10-25T07:21:05.505Z,12.16
2022-10-25T07:23:33.844Z,12.20
2022-10-25T07:26:02.135Z,12.22
2022-10-25T07:28:30.714Z,12.21
2022-10-25T07:30:58.961Z,12.15
2022-10-25T07:33:27.275Z,12.07
2022-10-25T07:36:06.497Z,12.05
2022-10-25T07:38:40.293Z,12.01
2022-10-25T07:41:08.903Z,11.99
2022-10-25T07:43:37.171Z,12.02
2022-10-25T07:46:05.566Z,12.07
2022-10-25T07:48:34.472Z,12.16
2022-10-25T07:51:04.790Z,12.26
2022-10-25T07:53:33.639Z,12.32
2022-10-25T07:56:03.268Z,12.36
2022-10-25T07:58:31.602Z,12.40
2022-10-25T08:01:03.520Z,12.48
2022-10-25T08:03:31.967Z,12.56
2022-10-25T08:06:00.635Z,12.65
2022-10-25T08:08:29.240Z,12.75
2022-10-25T08:10:57.568Z,12.92
2022-10-25T08:13:27.271Z,12.97
2022-10-25T08:15:56.221Z,13.02
2022-10-25T08:18:24.569Z,13.00
2022-10-25T08:21:08.507Z,13.02
2022-10-25T08:23:36.817Z,13.04
2022-10-25T08:26:05.098Z,13.21
2022-10-25T08:28:34.718Z,13.49
2022-10-25T08:31:04.517Z,13.64
2022-10-25T08:33:33.422Z,13.81
2022-10-25T08:36:02.157Z,13.88
2022-10-25T08:38:30.481Z,13.88
2022-10-25T08:41:03.325Z,13.88
2022-10-25T08:44:10.641Z,13.84
2022-10-25T08:46:40.318Z,13.79
2022-10-25T08:49:14.704Z,13.81
2022-10-25T08:51:44.405Z,13.95
2022-10-25T08:54:25.227Z,14.15
2022-10-25T08:57:20.652Z,14.58
2022-10-25T08:59:51.392Z,14.76
2022-10-25T09:02:24.871Z,14.92
2022-10-25T09:04:53.304Z,15.08
2022-10-25T09:07:40.639Z,15.05
2022-10-25T09:10:15.697Z,14.99
2022-10-25T09:12:45.467Z,15.02
2022-10-25T09:15:18.119Z,14.89
2022-10-25T09:17:50.355Z,14.94
2022-10-25T09:20:20.959Z,14.95
2022-10-25T09:22:49.824Z,14.82
2022-10-25T09:25:22.962Z,14.72
2022-10-25T09:27:57.079Z,14.71
2022-10-25T09:30:26.888Z,14.74
2022-10-25T09:32:56.868Z,14.83
2022-10-25T09:35:27.388Z,15.11
2022-10-25T09:37:58.107Z,15.15
2022-10-25T09:40:28.628Z,15.14
2022-10-25T09:42:58.129Z,15.02
2022-10-25T09:45:29.428Z,14.82
2022-10-25T09:48:03.307Z,14.66
2022-10-25T09:50:31.833Z,14.62
2022-10-25T09:53:11.993Z,14.64
2022-10-25T09:55:47.226Z,14.62
2022-10-25T09:58:19.412Z,14.65
2022-10-25T10:00:49.095Z,14.70
2022-10-25T10:03:17.350Z,14.67
2022-10-25T10:05:49.001Z,14.65
2022-10-25T10:08:17.252Z,14.63
2022-10-25T10:10:45.787Z,14.59
2022-10-25T10:13:17.282Z,14.53
2022-10-25T10:15:52.661Z,14.46
2022-10-25T10:18:24.779Z,14.48
2022-10-25T10:21:07.716Z,14.42
2022-10-25T10:23:38.318Z,14.40
2022-10-25T10:26:12.006Z,14.43
2022-10-25T10:28:44.441Z,14.49
2022-10-25T10:31:14.133Z,14.44
2022-10-25T10:33:42.423Z,14.36
2022-10-25T10:36:25.008Z,14.41
2022-10-25T10:38:53.327Z,14.44
2022-10-25T10:41:26.551Z,14.43
2022-10-25T10:44:09.338Z,14.51
2022-10-25T10:46:39.016Z,14.55
2022-10-25T10:49:07.253Z,14.69
2022-10-25T10:51:45.455Z,14.68
2022-10-25T10:54:15.883Z,14.65
2022-10-25T10:56:44.185Z,14.67
2022-10-25T10:59:26.705Z,14.60
2022-10-25T11:01:57.040Z,14.56
2022-10-25T11:04:26.359Z,14.60
2022-10-25T11:06:54.770Z,14.65
2022-10-25T11:09:26.220Z,14.60
2022-10-25T11:12:07.820Z,14.52
2022-10-25T11:14:36.085Z,14.57
2022-10-25T11:17:07.521Z,14.55
2022-10-25T11:20:00.124Z,14.51
2022-10-25T11:22:34.625Z,14.40
2022-10-25T11:25:10.668Z,14.35
2022-10-25T11:27:45.112Z,14.22
2022-10-25T11:30:15.343Z,14.18
2022-10-25T11:33:03.161Z,14.17
2022-10-25T11:35:39.765Z,14.15
2022-10-25T11:38:09.560Z,14.23
2022-10-25T11:40:39.984Z,14.41
2022-10-25T11:43:16.880Z,14.51
2022-10-25T11:45:45.391Z,14.52
2022-10-25T11:48:29.856Z,14.47
2022-10-25T11:51:00.811Z,14.39
2022-10-25T11:53:51.239Z,14.38
2022-10-25T11:56:22.311Z,14.40
2022-10-25T11:58:53.714Z,14.35
2022-10-25T12:01:31.307Z,14.27
2022-10-25T12:04:16.399Z,14.18
2022-10-25T12:06:47.112Z,14.11
2022-10-25T12:09:19.957Z,14.08
2022-10-25T12:11:49.048Z,14.13
2022-10-25T12:14:20.568Z,14.32
2022-10-25T12:16:48.813Z,14.53
2022-10-25T12:19:23.124Z,14.66
2022-10-25T12:21:55.648Z,14.75
2022-10-25T12:24:27.964Z,14.77
2022-10-25T12:26:56.245Z,14.78
2022-10-25T12:29:28.066Z,14.77
2022-10-25T12:31:58.073Z,14.75
2022-10-25T12:34:41.358Z,14.72
2022-10-25T12:37:12.213Z,14.75
2022-10-25T12:39:41.089Z,14.72
2022-10-25T12:42:17.907Z,14.54
2022-10-25T12:45:00.366Z,14.42
2022-10-25T12:47:38.070Z,14.49
2022-10-25T12:50:33.055Z,14.39
2022-10-25T12:53:11.790Z,14.29
2022-10-25T12:55:43.905Z,14.16
2022-10-25T12:58:28.054Z,13.99
2022-10-25T13:01:06.116Z,13.97
2022-10-25T13:03:56.864Z,14.04
2022-10-25T13:06:31.255Z,14.13
2022-10-25T13:09:03.399Z,14.23
2022-10-25T13:11:37.425Z,14.36
2022-10-25T13:14:05.835Z,14.45
2022-10-25T13:16:34.677Z,14.48
2022-10-25T13:22:41.010Z,14.63
2022-10-25T13:25:19.692Z,14.71
2022-10-25T13:28:31.433Z,14.74
2022-10-25T13:31:31.961Z,14.84
2022-10-25T13:34:22.647Z,14.87
2022-10-25T13:36:52.189Z,14.87
2022-10-25T13:39:23.225Z,14.85
2022-10-25T13:41:53.712Z,14.87
2022-10-25T13:44:22.515Z,14.92
2022-10-25T13:46:51.051Z,14.99
2022-10-25T13:49:29.831Z,15.07
2022-10-25T13:51:59.003Z,15.23
2022-10-25T13:54:31.402Z,15.17
2022-10-25T13:57:01.170Z,15.12
2022-10-25T13:59:37.611Z,15.10
2022-10-25T14:02:09.840Z,15.06
2022-10-25T14:04:39.339Z,15.03
2022-10-25T14:07:45.082Z,14.97
2022-10-25T14:10:34.600Z,14.92
2022-10-25T14:13:12.558Z,14.93
2022-10-25T14:15:44.980Z,15.00
2022-10-25T14:18:16.689Z,15.04
2022-10-25T14:20:46.937Z,14.96
2022-10-25T14:23:16.387Z,14.83
2022-10-25T14:25:44.885Z,14.74
2022-10-25T14:28:16.601Z,14.64
2022-10-25T14:30:45.019Z,14.55
2022-10-25T14:33:40.787Z,14.39
2022-10-25T14:36:11.423Z,14.31
2022-10-25T14:38:51.786Z,14.23
2022-10-25T14:41:22.531Z,14.14
2022-10-25T14:43:52.204Z,14.06
2022-10-25T14:46:21.054Z,13.99
2022-10-25T14:48:50.055Z,13.92
2022-10-25T14:51:22.064Z,13.87
2022-10-25T14:53:55.378Z,13.83
2022-10-25T14:56:25.796Z,13.78
2022-10-25T14:58:55.478Z,13.70
2022-10-25T15:01:23.938Z,13.59
2022-10-25T15:03:54.509Z,13.48
2022-10-25T15:06:24.487Z,13.38
2022-10-25T15:09:14.870Z,13.29
2022-10-25T15:12:02.769Z,13.23
2022-10-25T15:14:32.612Z,13.15
2022-10-25T15:17:04.195Z,13.01
2022-10-25T15:19:32.495Z,12.96
2022-10-25T15:22:07.845Z,12.91
2022-10-25T15:24:44.716Z,12.88
2022-10-25T15:27:26.767Z,12.78
2022-10-25T15:29:56.534Z,12.70
2022-10-25T15:32:26.508Z,12.60
2022-10-25T15:34:55.675Z,12.52
2022-10-25T15:37:24.550Z,12.43
2022-10-25T15:39:53.616Z,12.33
2022-10-25T15:42:22.165Z,12.23
2022-10-25T15:44:50.573Z,12.16
2022-10-25T15:47:30.740Z,12.11
2022-10-25T15:49:59.117Z,12.01
2022-10-25T15:52:27.430Z,12.01
2022-10-25T15:54:55.743Z,11.94
2022-10-25T15:57:24.045Z,11.91
2022-10-25T15:59:52.437Z,11.85
2022-10-25T16:02:22.273Z,11.80
2022-10-25T16:04:52.039Z,11.78
2022-10-25T16:07:20.276Z,11.77
2022-10-25T16:09:48.562Z,11.73
2022-10-25T16:12:20.600Z,11.68
2022-10-25T16:14:49.179Z,11.63
2022-10-25T16:17:17.913Z,11.58
2022-10-25T16:19:46.195Z,11.52
2022-10-25T16:22:15.791Z,11.49
2022-10-25T16:24:44.098Z,11.49
2022-10-25T16:27:12.928Z,11.45
2022-10-25T16:29:41.548Z,11.44
2022-10-25T16:32:09.826Z,11.47
2022-10-25T16:34:38.244Z,11.48
2022-10-25T16:37:10.629Z,11.48
2022-10-25T16:39:41.343Z,11.51
2022-10-25T16:42:27.848Z,11.51
2022-10-25T16:44:56.152Z,11.49
2022-10-25T16:47:24.407Z,11.42
2022-10-25T16:49:52.720Z,11.33
2022-10-25T16:52:21.592Z,11.24
2022-10-25T16:54:51.276Z,11.20
2022-10-25T16:57:21.035Z,11.12
2022-10-25T16:59:51.014Z,11.08
2022-10-25T17:02:20.664Z,11.01
2022-10-25T17:04:49.623Z,10.97
2022-10-25T17:07:17.904Z,10.90
2022-10-25T17:09:46.170Z,10.84
2022-10-25T17:12:16.112Z,10.74
2022-10-25T17:14:44.359Z,10.67
2022-10-25T17:17:12.618Z,10.62
2022-10-25T17:19:40.959Z,10.53
2022-10-25T17:22:09.219Z,10.50
2022-10-25T17:24:37.698Z,10.47
2022-10-25T17:29:40.608Z,10.40
2022-10-25T17:32:08.887Z,10.37
2022-10-25T17:34:37.307Z,10.33
2022-10-25T17:37:05.706Z,10.29
2022-10-25T17:39:34.270Z,10.25
2022-10-25T17:42:02.514Z,10.24
2022-10-25T17:44:30.758Z,10.26
2022-10-25T17:47:03.029Z,10.19
2022-10-25T17:49:31.623Z,10.12
2022-10-25T17:52:00.257Z,10.11
2022-10-25T17:54:28.565Z,10.08
2022-10-25T17:56:58.715Z,10.07
2022-10-25T17:59:28.454Z,10.02
2022-10-25T18:01:56.827Z,9.97
2022-10-25T18:04:26.849Z,9.89
2022-10-25T18:06:55.175Z,9.86
2022-10-25T18:09:23.415Z,9.82
2022-10-25T18:11:51.750Z,9.75
2022-10-25T18:14:20.018Z,9.70
2022-10-25T18:16:48.673Z,9.67
2022-10-25T18:19:17.157Z,9.65
2022-10-25T18:21:46.869Z,9.61
2022-10-25T18:24:15.248Z,9.55
2022-10-25T18:26:43.543Z,9.56
2022-10-25T18:31:59.923Z,9.52
2022-10-25T18:34:28.025Z,9.49
2022-10-25T18:36:57.482Z,9.46
2022-10-25T18:39:25.545Z,9.42
2022-10-25T18:41:55.160Z,9.32
2022-10-25T18:44:23.243Z,9.23
2022-10-25T18:46:51.339Z,9.19
2022-10-25T18:49:19.677Z,9.17
2022-10-25T18:51:47.888Z,9.16
2022-10-25T18:54:18.485Z,9.08
2022-10-25T18:56:46.678Z,9.09
2022-10-25T18:59:14.897Z,9.06
2022-10-25T19:01:43.190Z,8.96
2022-10-25T19:04:11.487Z,8.87
2022-10-25T19:06:40.025Z,8.79
2022-10-25T19:09:08.204Z,8.77
2022-10-25T19:11:37.845Z,8.75
2022-10-25T19:14:06.951Z,8.72
2022-10-25T19:16:35.997Z,8.70
2022-10-25T19:19:04.630Z,8.68
2022-10-25T19:21:33.102Z,8.65
2022-10-25T19:24:01.301Z,8.54
2022-10-25T19:26:29.504Z,8.48
2022-10-25T19:28:59.578Z,8.44
2022-10-25T19:31:28.482Z,8.39
2022-10-25T19:34:00.263Z,8.35
2022-10-25T19:36:28.590Z,8.32
2022-10-25T19:38:56.784Z,8.32
2022-10-25T19:41:25.754Z,8.27
2022-10-25T19:43:54.057Z,8.23
2022-10-25T19:46:23.990Z,8.17
2022-10-25T19:48:52.156Z,8.14
2022-10-25T19:51:21.028Z,8.11
2022-10-25T19:53:49.715Z,8.05
2022-10-25T19:56:18.784Z,8.04
2022-10-25T19:58:47.022Z,8.05
2022-10-25T20:01:17.044Z,8.00
2022-10-25T20:03:46.880Z,7.95
2022-10-25T20:06:18.853Z,7.94
2022-10-25T20:08:49.939Z,7.87
2022-10-25T20:11:18.388Z,7.86
2022-10-25T20:13:46.719Z,7.81
2022-10-25T20:16:15.556Z,7.79
2022-10-25T20:18:43.874Z,7.73
2022-10-25T20:21:14.626Z,7.76
2022-10-25T20:23:44.468Z,7.71
2022-10-25T20:26:13.769Z,7.66
2022-10-25T20:28:42.230Z,7.66
2022-10-25T20:31:10.575Z,7.71
2022-10-25T20:33:38.884Z,7.72
2022-10-25T20:36:08.635Z,7.73
2022-10-25T20:38:38.594Z,7.88
2022-10-25T20:41:07.090Z,7.92
2022-10-25T20:43:35.568Z,7.95
2022-10-25T20:46:03.775Z,8.01
2022-10-25T20:48:31.983Z,8.10
2022-10-25T20:51:04.138Z,8.34
2022-10-25T20:53:35.164Z,8.46
2022-10-25T20:56:05.740Z,8.55
2022-10-25T20:58:34.211Z,8.72
2022-10-25T21:01:02.505Z,8.88
2022-10-25T21:03:31.493Z,9.00
2022-10-25T21:06:00.326Z,9.00
2022-10-25T21:08:28.496Z,9.04
2022-10-25T21:10:57.601Z,9.03
2022-10-25T21:13:27.471Z,9.03
2022-10-25T21:15:55.645Z,9.07
2022-10-25T21:18:23.890Z,8.90
2022-10-25T21:20:52.404Z,8.70
2022-10-25T21:23:20.930Z,8.59
2022-10-25T21:25:49.103Z,8.52
2022-10-25T21:28:17.576Z,8.40
2022-10-25T21:30:47.180Z,8.34
2022-10-25T21:33:15.442Z,8.28
2022-10-25T21:35:43.701Z,8.27
2022-10-25T21:38:12.156Z,8.23
2022-10-25T21:40:40.337Z,8.14
2022-10-25T21:43:08.550Z,8.08
2022-10-25T21:45:40.858Z,8.02
2022-10-25T21:48:10.462Z,7.97
2022-10-25T21:50:39.195Z,7.93
2022-10-25T21:53:07.393Z,7.86
2022-10-25T21:55:35.623Z,7.81
2022-10-25T21:58:03.801Z,7.80
2022-10-25T22:00:31.996Z,7.78
2022-10-25T22:03:00.197Z,7.74
2022-10-25T22:05:30.125Z,7.68
2022-10-25T22:07:58.645Z,7.63
2022-10-25T22:10:26.893Z,7.62
2022-10-25T22:12:57.466Z,7.55
2022-10-25T22:15:25.709Z,7.55
2022-10-25T22:17:54.317Z,7.53
2022-10-25T22:20:22.525Z,7.52
2022-10-25T22:22:52.134Z,7.49
2022-10-25T22:25:20.386Z,7.46
2022-10-25T22:27:48.611Z,7.47
2022-10-25T22:30:18.366Z,7.47
2022-10-25T22:32:47.176Z,7.47
2022-10-25T22:35:15.705Z,7.44
2022-10-25T22:37:43.893Z,7.42
2022-10-25T22:40:14.111Z,7.39
2022-10-25T22:42:42.380Z,7.33
2022-10-25T22:45:11.107Z,7.31
2022-10-25T22:47:39.303Z,7.33
2022-10-25T22:50:08.238Z,7.32
2022-10-25T22:52:36.478Z,7.29
2022-10-25T22:55:06.777Z,7.32
2022-10-25T22:57:36.946Z,7.33
2022-10-25T23:00:05.916Z,7.36
2022-10-25T23:02:34.100Z,7.37
2022-10-25T23:05:02.788Z,7.33
2022-10-25T23:07:30.987Z,7.27
2022-10-25T23:09:59.215Z,7.21
2022-10-25T23:12:27.725Z,7.20
2022-10-25T23:14:57.378Z,7.17
2022-10-25T23:17:25.642Z,7.15
2022-10-25T23:19:53.857Z,7.13
2022-10-25T23:22:22.051Z,7.11
2022-10-25T23:24:50.490Z,7.10
2022-10-25T23:27:18.746Z,7.09
2022-10-25T23:29:46.990Z,7.10
2022-10-25T23:32:16.630Z,7.06
2022-10-25T23:34:44.886Z,6.99
2022-10-25T23:37:13.029Z,6.97
2022-10-25T23:39:41.785Z,6.95
2022-10-25T23:42:09.997Z,6.93
2022-10-25T23:44:38.216Z,6.91
2022-10-25T23:47:06.501Z,6.89
2022-10-25T23:49:36.068Z,6.88
2022-10-25T23:52:04.545Z,6.86
2022-10-25T23:54:32.703Z,6.84
2022-10-25T23:57:00.872Z,6.81
2022-10-25T23:59:29.026Z,6.79
